Capitol Logistics 313


KRFD
Chicago/Rockford International Airport
Rockford, Illinois, US
KIAD
Washington Dulles International Airport
Dulles, Virginia, US

Activity Log

Date Flight Route Aircraft Duration
02/13/2020 CPX313 JOT J60 JERRI NUSMM MGW GIBBZ2 B763 1h 37m
10/26/2019 CPX313 JOT J30 LUISE MGW GIBBZ3 B763 1h 43m
08/18/2019 CPX445 JOT J60 JERRI NUSMM MGW GIBBZ2 B738 1h 37m
06/23/2019 CPX433 JOT J60 JERRI NUSMM MGW GIBBZ2 B752 1h 38m
06/08/2019 CPX433 JOT J60 JERRI NUSMM MGW GIBBZ2 B752 2h 22m
05/26/2019 CPX313 JOT J60 JERRI NUSMM MGW GIBBZ3 B763 1h 33m
03/08/2019 CPX313 JOT J60 JERRI NUSMM MGW GIBBZ2 B763 1h 37m
12/11/2018 CPX511 JOT J60 JERRI NUSMM MGW GIBBZ2 B763 1h 40m
10/12/2018 CPX310 OBK ZIMEG OTENS ANEWA RIEKE DJB J34 AIR J162 MGW GIBBZ2 B752 1h 57m
09/29/2018 CPX320 OBK ZIMEG OTENS ANEWA RIEKE DJB J34 AIR J162 MGW GIBBZ2 B752 1h 49m
03/31/2018 CPX511 OBK ADIME OTENS ANEWA JERRI NUSMM MGW GIBBZ2 B752 1h 26m

Route Details

Aircraft Information
Primary: Boeing 767-300BDSF
Backup: Not Available
Route Data
Distance: 626nm
Sched. Duration: 1h 25m
Avg. Duration: 1h 47m (+23m)
Times Flown: 11
Recm'd Route: JOT J60 JERRI NUSMM MGW GIBBZ2
Planned Altitude: 35,000ft
Origin Wx: KRFD 311154Z 02011KT 10SM OVC018 03/M01 A3010 RMK AO2 SLP197 T00281011 10039 20022 55003
Dest. Wx: KIAD 311152Z 35005KT 10SM FEW050 BKN060 10/02 A3000 RMK AO2 SLP159 T01000022 10111 20094 51014
Notes:

Financial History
Total Freight: 655,742lbs
Average Load: 59,613lbs/flt
Fuel Used: 160,981lbs
Avg. Fuel Used: 14,635lbs/flt
Fuel Expense: $106,761
Avg. Fuel Expense: $9,706
Avg. Fuel Cost: $0.65/lbs
Total Gross Income: $843,812
Pilot Pay: $1,729
Total Expenses: $92,511
Total Revenue: $640,122
Average Revenue: $76,710.21